Data for 01/31/2005

Time Sea-Level Adjusted Pressure Absolute Pressure Temperature Relative Humidity Dew Point   
(mb) (inHg) (mb) (inHg) (C) (F) (%) (C) (F)
00:05 1025 30.27 854 25.22 -0.6 30.8 67 -6 21.3
00:10 1025 30.27 854 25.22 -0.5 31.1 67 -5.8 21.5
00:15 1025 30.27 854 25.22 -0.9 30.4 68 -6.1 20.9
00:20 1025 30.27 854 25.22 -1.1 30.1 67 -6.3 20.6
00:25 1025 30.27 854 25.22 -1 30.1 68 -6.3 20.7
00:30 1025 30.27 854 25.22 -0.9 30.4 66 -6.5 20.4
00:35 1025 30.27 854 25.22 -1 30.2 66 -6.6 20.2
00:40 1025 30.27 854 25.22 -1 30.3 66 -6.5 20.3
00:45 1025 30.27 854 25.22 -0.9 30.4 66 -6.5 20.3
00:50 1025 30.27 854 25.22 -1.2 29.9 69 -6.1 21
00:55 1025 30.27 854 25.22 -1.8 28.7 71 -6.4 20.5
01:00 1025 30.27 854 25.22 -1.4 29.4 70 -6.2 20.8
01:05 1025 30.27 854 25.22 -1.2 29.9 70 -6 21.2
01:10 1025 30.27 854 25.22 -1.1 30 68 -6.2 20.9
01:15 1025 30.27 854 25.22 -1.2 29.8 69 -6.3 20.7
01:20 1025 30.27 854 25.22 -1.2 29.8 68 -6.4 20.4
01:25 1025 30.27 854 25.22 -1.4 29.4 68 -6.5 20.2
01:30 1025 30.27 854 25.22 -1.7 29 68 -6.8 19.8
01:35 1025 30.27 854 25.22 -1.8 28.8 69 -6.8 19.8
01:40 1025 30.27 854 25.22 -1.8 28.8 69 -6.8 19.7
01:45 1025 30.27 854 25.22 -1.6 29.1 67 -6.9 19.6
01:50 1025 30.27 854 25.22 -1.6 29.2 68 -6.8 19.8
01:55 1025 30.27 854 25.22 -1.8 28.7 70 -6.6 20
02:00 1025 30.27 854 25.22 -2.3 27.9 72 -6.6 20.1
02:05 1025 30.27 854 25.22 -2.5 27.6 73 -6.6 20.1
02:10 1025 30.27 854 25.22 -2.5 27.6 73 -6.7 20
02:15 1025 30.27 854 25.22 -2.3 27.9 73 -6.5 20.2
02:20 1025 30.27 854 25.22 -2.3 27.9 71 -6.8 19.8
02:25 1025 30.27 854 25.22 -2 28.4 69 -6.9 19.6
02:30 1025 30.27 854 25.22 -1.7 29 68 -6.9 19.6
02:35 1025 30.27 854 25.22 -1.3 29.6 67 -6.7 19.9
02:40 1025 30.27 854 25.22 -1.3 29.6 67 -6.7 20
02:45 1025 30.27 854 25.22 -1.5 29.4 67 -6.8 19.8
02:50 1025 30.27 854 25.22 -1.5 29.3 67 -6.9 19.7
02:55 1024 30.24 854 25.22 -1.5 29.4 67 -6.9 19.6
03:00 1024 30.24 854 25.22 -1.5 29.4 67 -6.7 19.9
03:05 1024 30.24 854 25.22 -1.5 29.3 67 -6.8 19.8
03:10 1024 30.24 854 25.22 -1.6 29.1 67 -7 19.5
03:15 1024 30.24 854 25.22 -1.9 28.5 70 -6.7 20
03:20 1024 30.24 854 25.22 -2.4 27.6 72 -6.9 19.6
03:25 1024 30.24 854 25.22 -2.5 27.5 71 -7 19.3
03:30 1024 30.24 853 25.19 -2.2 28 70 -7.1 19.3
03:35 1024 30.24 853 25.19 -2.1 28.2 69 -7.1 19.2
03:40 1024 30.24 853 25.19 -2.1 28.1 70 -6.9 19.6
03:45 1024 30.24 854 25.22 -2.4 27.6 72 -6.8 19.8
03:50 1024 30.24 853 25.19 -2.5 27.5 72 -6.9 19.6
03:55 1024 30.24 853 25.19 -2.3 27.8 71 -6.9 19.5
04:00 1024 30.24 853 25.19 -2.2 28 70 -6.9 19.5
04:05 1024 30.24 853 25.19 -2.2 28.1 70 -6.9 19.6
04:10 1024 30.24 853 25.19 -2.1 28.1 69 -7 19.4
04:15 1024 30.24 853 25.19 -2.1 28.2 69 -7.1 19.3
04:20 1024 30.24 853 25.19 -2 28.4 68 -7.2 19
04:25 1024 30.24 853 25.19 -2 28.4 68 -7.1 19.3
04:30 1024 30.24 853 25.19 -2 28.3 68 -7.2 19.1
04:35 1024 30.24 853 25.19 -2.1 28.2 69 -7.1 19.2
04:40 1024 30.24 853 25.19 -2.4 27.6 71 -7 19.4
04:45 1024 30.24 853 25.19 -2.5 27.5 72 -6.9 19.5
04:50 1024 30.24 853 25.19 -2.3 27.8 70 -7.1 19.2
04:55 1024 30.24 853 25.19 -2.2 28 70 -7 19.3
05:00 1024 30.24 853 25.19 -2.4 27.7 70 -7.2 19
05:05 1024 30.24 853 25.19 -2.5 27.6 69 -7.3 18.8
05:10 1024 30.24 853 25.19 -2.3 27.9 69 -7.3 18.9
05:15 1024 30.24 853 25.19 -2.6 27.4 71 -7.2 19.1
05:20 1024 30.24 853 25.19 -2.8 26.9 72 -7.3 18.9
05:25 1024 30.24 853 25.19 -3 26.6 71 -7.5 18.5
05:30 1024 30.24 853 25.19 -2.6 27.3 69 -7.5 18.5
05:35 1024 30.24 853 25.19 -2.8 26.9 70 -7.5 18.5
05:40 1024 30.24 853 25.19 -2.8 26.9 70 -7.5 18.5
05:45 1024 30.24 853 25.19 -3 26.6 70 -7.7 18.2
05:50 1024 30.24 853 25.19 -2.8 26.9 71 -7.4 18.7
05:55 1024 30.24 853 25.19 -3.3 26.1 73 -7.5 18.5
06:00 1024 30.24 853 25.19 -3.5 25.7 76 -7.2 19
06:05 1024 30.24 853 25.19 -3.3 26 73 -7.6 18.4
06:10 1024 30.24 853 25.19 -3.4 25.8 73 -7.5 18.4
06:15 1024 30.24 853 25.19 -3.8 25.2 75 -7.5 18.4
06:20 1024 30.24 853 25.19 -4 24.8 76 -7.6 18.3
06:25 1024 30.24 853 25.19 -3.8 25.2 75 -7.6 18.4
06:30 1024 30.24 853 25.19 -3.6 25.5 74 -7.6 18.3
06:35 1024 30.24 853 25.19 -3.4 25.8 72 -7.7 18.1
06:40 1024 30.24 853 25.19 -3.2 26.2 72 -7.6 18.3
06:45 1024 30.24 853 25.19 -3.1 26.4 71 -7.7 18.2
06:50 1024 30.24 853 25.19 -2.9 26.8 70 -7.5 18.5
06:55 1024 30.24 853 25.19 -2.8 26.9 71 -7.4 18.8
07:00 1024 30.24 853 25.19 -3 26.6 72 -7.3 18.8
07:05 1024 30.24 853 25.19 -3.2 26.2 73 -7.3 18.8
07:10 1024 30.24 853 25.19 -3.3 26.1 73 -7.5 18.5
07:15 1024 30.24 853 25.19 -3.3 26 73 -7.4 18.6
07:20 1024 30.24 853 25.19 -3.9 24.9 77 -7.4 18.6
07:25 1024 30.24 853 25.19 -4.1 24.6 76 -7.7 18.1
07:30 1024 30.24 854 25.22 -3.8 25.2 75 -7.6 18.3
07:35 1024 30.24 854 25.22 -3.6 25.6 76 -7.2 19.1
07:40 1025 30.27 854 25.22 -3.2 26.3 72 -7.5 18.5
07:45 1025 30.27 854 25.22 -2.9 26.7 72 -7.3 18.9
07:50 1025 30.27 854 25.22 -2.9 26.9 71 -7.5 18.6
07:55 1024 30.24 854 25.22 -2.6 27.4 68 -7.6 18.3
08:00 1024 30.24 854 25.22 -2.3 27.9 68 -7.4 18.7
08:05 1024 30.24 854 25.22 -2.2 28.1 69 -7 19.3
08:10 1024 30.24 854 25.22 -2.2 28.1 70 -7 19.4
08:15 1024 30.24 854 25.22 -2.2 28.1 70 -6.9 19.6
08:20 1025 30.27 854 25.22 -2.1 28.2 70 -6.8 19.7
08:25 1025 30.27 854 25.22 -2 28.5 68 -7 19.4
08:30 1025 30.27 854 25.22 -1.8 28.8 68 -7 19.3
08:35 1024 30.24 854 25.22 -1.8 28.8 69 -6.7 19.9
08:40 1024 30.24 854 25.22 -1.7 28.9 68 -6.9 19.6
08:45 1024 30.24 854 25.22 -1.5 29.3 70 -6.2 20.8
08:50 1024 30.24 854 25.22 -1.4 29.5 71 -6.1 21.1
08:55 1024 30.24 854 25.22 -1.3 29.7 71 -5.9 21.4
09:00 1024 30.24 853 25.19 -1.2 29.8 71 -5.9 21.4
09:05 1024 30.24 853 25.19 -1.5 29.3 73 -5.8 21.6
09:10 1024 30.24 853 25.19 -1.7 29 73 -5.9 21.4
09:15 1024 30.24 853 25.19 -1.6 29.1 73 -5.9 21.5
09:20 1024 30.24 853 25.19 -1.5 29.2 73 -5.7 21.7
09:25 1024 30.24 853 25.19 -1.5 29.2 74 -5.5 22.1
09:30 1024 30.24 853 25.19 -1.6 29.1 74 -5.7 21.7
09:35 1024 30.24 853 25.19 -1.7 29 73 -5.9 21.4
09:40 1024 30.24 853 25.19 -1.5 29.3 71 -6.2 20.9
09:45 1024 30.24 853 25.19 -1.3 29.6 70 -6.2 20.8
09:50 1024 30.24 853 25.19 -1.1 30 69 -6.2 20.9
09:55 1024 30.24 853 25.19 -1 30.2 68 -6.1 21
10:00 1024 30.24 853 25.19 -0.9 30.4 68 -6.1 21
10:05 1024 30.24 853 25.19 -0.6 30.9 66 -6.1 21
10:10 1024 30.24 853 25.19 -0.5 31.1 66 -6.2 20.9
10:15 1024 30.24 853 25.19 -0.2 31.6 63 -6.4 20.5
10:20 1024 30.24 853 25.19 0.1 32.2 61 -6.4 20.4
10:25 1024 30.24 853 25.19 0.5 32.8 59 -6.6 20.2
10:30 1024 30.24 853 25.19 0.5 32.8 62 -5.9 21.4
10:35 1024 30.24 853 25.19 0.7 33.3 61 -6 21.2
10:40 1024 30.24 853 25.19 0.5 32.9 61 -6.2 20.8
10:45 1024 30.24 853 25.19 0.8 33.5 60 -6.1 21
10:50 1024 30.24 853 25.19 0.8 33.4 60 -6 21.2
10:55 1023 30.21 853 25.19 1 33.8 59 -6.1 21
11:00 1023 30.21 853 25.19 1.4 34.5 58 -6 21.2
11:05 1023 30.21 852 25.16 1.8 35.2 58 -5.5 22
11:10 1023 30.21 853 25.19 2.2 36 57 -5.4 22.3
11:15 1023 30.21 853 25.19 3.2 37.8 53 -5.4 22.3
11:20 1023 30.21 853 25.19 4.1 39.4 51 -5.2 22.7
11:25 1023 30.21 853 25.19 4.3 39.7 52 -4.6 23.7
11:30 1023 30.21 852 25.16 4.1 39.3 52 -4.8 23.4
11:35 1023 30.21 852 25.16 4.9 40.7 51 -4.4 24
11:40 1023 30.21 852 25.16 5.6 42 49 -4.4 24.1
11:45 1023 30.21 852 25.16 6.7 44 47 -3.9 25
11:50 1023 30.21 852 25.16 6.9 44.3 48 -3.5 25.7
11:55 1023 30.21 852 25.16 6.8 44.2 47 -3.6 25.6
12:00 1023 30.21 852 25.16 6.5 43.7 48 -3.7 25.4
12:05 1023 30.21 852 25.16 6.6 43.9 46 -4.1 24.7
12:10 1022 30.18 852 25.16 6.8 44.3 45 -4.1 24.5
12:15 1022 30.18 851 25.13 7.9 46.1 43 -4 24.8
12:20 1022 30.18 851 25.13 8.9 48.1 39 -4.1 24.6
12:25 1022 30.18 851 25.13 9.3 48.7 38 -4.1 24.6
12:30 1022 30.18 851 25.13 8.3 47 44 -3.3 26
12:35 1022 30.18 851 25.13 8.8 47.9 41 -3.9 25.1
12:40 1022 30.18 851 25.13 9.4 48.8 39 -4 24.8
12:45 1021 30.15 851 25.13 9.3 48.7 39 -3.9 24.9
12:50 1021 30.15 851 25.13 9.3 48.8 38 -4.2 24.5
12:55 1021 30.15 850 25.1 9.3 48.7 40 -3.6 25.4
13:00 1021 30.15 850 25.1 8.5 47.3 42 -3.7 25.3
13:05 1021 30.15 850 25.1 8.4 47.2 42 -3.8 25.2
13:10 1021 30.15 850 25.1 9.2 48.5 40 -3.8 25.2
13:15 1021 30.15 850 25.1 8.6 47.4 40 -4.1 24.7
13:20 1021 30.15 850 25.1 9.1 48.4 39 -4 24.9
13:25 1021 30.15 850 25.1 9.5 49 39 -3.9 25
13:30 1021 30.15 850 25.1 9.2 48.6 42 -3.2 26.3
13:35 1021 30.15 850 25.1 8.2 46.7 42 -3.8 25.1
13:40 1021 30.15 850 25.1 8.3 46.9 42 -4 24.8
13:45 1021 30.15 850 25.1 9 48.2 40 -3.7 25.4
13:50 1021 30.15 850 25.1 8.7 47.7 40 -4.2 24.5
13:55 1021 30.15 850 25.1 8.7 47.6 41 -3.8 25.2
14:00 1020 30.12 850 25.1 8.9 48.1 40 -4 24.8
14:05 1021 30.15 850 25.1 9 48.3 40 -3.8 25.2
14:10 1020 30.12 850 25.1 8.9 48 40 -3.9 24.9
14:15 1020 30.12 850 25.1 8.8 47.9 40 -4 24.8
14:20 1020 30.12 850 25.1 9 48.2 39 -4 24.7
14:25 1020 30.12 850 25.1 9.2 48.5 40 -3.8 25.2
14:30 1020 30.12 850 25.1 8.9 48 41 -3.7 25.3
14:35 1020 30.12 850 25.1 8.1 46.6 43 -3.8 25.2
14:40 1020 30.12 850 25.1 7.8 46.1 43 -4 24.7
14:45 1020 30.12 850 25.1 7.8 46 42 -4.3 24.3
14:50 1020 30.12 849 25.07 7.8 46.1 43 -3.9 25
14:55 1020 30.12 849 25.07 8 46.4 42 -4.2 24.4
15:00 1020 30.12 849 25.07 8.6 47.4 40 -4.3 24.2
15:05 1020 30.12 849 25.07 8.3 46.9 42 -4 24.8
15:10 1020 30.12 849 25.07 8.3 46.9 41 -4.1 24.6
15:15 1020 30.12 849 25.07 8.6 47.6 40 -4.1 24.6
15:20 1020 30.12 849 25.07 8.8 47.8 39 -4.4 24.1
15:25 1020 30.12 849 25.07 8.7 47.7 40 -4.1 24.6
15:30 1020 30.12 849 25.07 8.6 47.5 41 -4.1 24.7
15:35 1020 30.12 849 25.07 8.7 47.6 41 -4 24.8
15:40 1020 30.12 849 25.07 8.8 47.8 40 -4 24.9
15:45 1020 30.12 849 25.07 8.7 47.6 41 -3.9 24.9
15:50 1020 30.12 849 25.07 8.6 47.6 41 -4 24.8
15:55 1020 30.12 849 25.07 8.6 47.4 41 -3.9 25
16:00 1020 30.12 850 25.1 8.4 47 41 -4 24.8
16:05 1020 30.12 850 25.1 8.2 46.7 43 -3.8 25.2
16:10 1020 30.12 850 25.1 8 46.4 43 -3.8 25.2
16:15 1021 30.15 850 25.1 7.9 46.3 43 -3.8 25.1
16:20 1021 30.15 850 25.1 7.9 46.2 43 -3.8 25.1
16:25 1021 30.15 850 25.1 7.9 46.1 43 -3.8 25.1
16:30 1021 30.15 850 25.1 7.8 46.1 44 -3.7 25.3
16:35 1021 30.15 850 25.1 7.7 45.8 45 -3.5 25.6
16:40 1021 30.15 850 25.1 7.5 45.5 46 -3.3 26.1
16:45 1021 30.15 850 25.1 7.2 45 47 -3.3 26.1
16:50 1021 30.15 850 25.1 7.2 44.9 47 -3.5 25.8
16:55 1021 30.15 850 25.1 7 44.6 47 -3.4 25.9
17:00 1021 30.15 850 25.1 6.8 44.2 49 -3.2 26.3
17:05 1020 30.12 850 25.1 6.6 43.9 49 -3.4 26
17:10 1020 30.12 850 25.1 6.5 43.7 50 -3.2 26.3
17:15 1020 30.12 850 25.1 6 42.7 53 -3 26.6
17:20 1020 30.12 850 25.1 5.5 41.9 55 -2.9 26.8
17:25 1020 30.12 850 25.1 5.1 41.1 56 -2.9 26.9
17:30 1020 30.12 850 25.1 4.5 40.1 58 -3 26.6
17:35 1020 30.12 850 25.1 4.6 40.2 59 -2.7 27.1
17:40 1020 30.12 850 25.1 4.6 40.3 58 -2.9 26.8
17:45 1020 30.12 850 25.1 5.1 41.2 56 -2.9 26.7
17:50 1020 30.12 850 25.1 5.5 41.8 55 -2.8 26.9
17:55 1020 30.12 850 25.1 5.5 41.9 55 -2.8 27
18:00 1020 30.12 849 25.07 5.4 41.7 56 -2.7 27.2
18:05 1020 30.12 850 25.1 5.4 41.7 55 -2.8 26.9
18:10 1020 30.12 850 25.1 5.5 42 55 -2.9 26.8
18:15 1020 30.12 850 25.1 5.6 42 54 -2.9 26.8
18:20 1020 30.12 850 25.1 5.6 42 55 -2.8 27
18:25 1020 30.12 850 25.1 5.4 41.7 56 -2.7 27.1
18:30 1020 30.12 850 25.1 5.2 41.3 57 -2.6 27.4
18:35 1020 30.12 850 25.1 5 41.1 57 -2.8 26.9
18:40 1020 30.12 850 25.1 4.8 40.6 59 -2.5 27.5
18:45 1020 30.12 850 25.1 4.2 39.6 62 -2.5 27.6
18:50 1020 30.12 850 25.1 4 39.3 61 -2.7 27.2
18:55 1020 30.12 850 25.1 4.2 39.5 61 -2.6 27.4
19:00 1020 30.12 850 25.1 4.1 39.3 62 -2.5 27.5
19:05 1020 30.12 850 25.1 3.7 38.6 64 -2.4 27.6
19:10 1020 30.12 850 25.1 3.4 38 64 -2.7 27.1
19:15 1021 30.15 850 25.1 3.4 38.2 63 -2.9 26.8
19:20 1020 30.12 850 25.1 3.5 38.4 63 -2.9 26.7
19:25 1020 30.12 850 25.1 3.8 38.9 60 -3.1 26.4
19:30 1020 30.12 850 25.1 3.8 38.8 62 -2.9 26.9
19:35 1020 30.12 850 25.1 3.9 39.1 59 -3.4 25.8
19:40 1021 30.15 850 25.1 4.2 39.6 58 -3.4 25.9
19:45 1021 30.15 850 25.1 4.2 39.5 59 -3.1 26.4
19:50 1021 30.15 850 25.1 4.1 39.4 59 -3.2 26.3
19:55 1021 30.15 850 25.1 4 39.2 61 -3 26.7
20:00 1021 30.15 850 25.1 3.6 38.4 63 -2.9 26.8
20:05 1021 30.15 850 25.1 3.3 37.9 63 -3 26.6
20:10 1021 30.15 850 25.1 3.2 37.8 63 -3 26.6
20:15 1021 30.15 850 25.1 3.1 37.6 64 -3.1 26.4
20:20 1021 30.15 850 25.1 3.1 37.5 64 -3.1 26.5
20:25 1021 30.15 850 25.1 3 37.4 64 -3.2 26.3
20:30 1021 30.15 850 25.1 3 37.4 64 -3.2 26.2
20:35 1021 30.15 850 25.1 2.7 36.9 65 -3.2 26.3
20:40 1021 30.15 850 25.1 2.6 36.6 65 -3.3 26
20:45 1021 30.15 850 25.1 2.6 36.7 65 -3.4 25.9
20:50 1021 30.15 850 25.1 2.6 36.7 64 -3.5 25.7
20:55 1021 30.15 850 25.1 2.6 36.8 64 -3.6 25.5
21:00 1021 30.15 850 25.1 2.6 36.8 64 -3.6 25.6
21:05 1021 30.15 850 25.1 2.7 36.9 63 -3.6 25.6
21:10 1021 30.15 850 25.1 2.7 36.9 62 -3.8 25.2
21:15 1021 30.15 850 25.1 2.7 36.9 62 -3.9 25
21:20 1021 30.15 851 25.13 2.8 37.1 61 -4 24.8
21:25 1021 30.15 851 25.13 3 37.4 60 -4.1 24.6
21:30 1021 30.15 851 25.13 3.1 37.6 59 -4.1 24.6
21:35 1021 30.15 851 25.13 3.2 37.8 59 -4 24.7
21:40 1021 30.15 851 25.13 3.2 37.8 59 -4 24.8
21:45 1021 30.15 851 25.13 3.3 38 58 -4.1 24.7
21:50 1021 30.15 851 25.13 3.5 38.4 57 -4.2 24.5
21:55 1022 30.18 851 25.13 3.6 38.5 57 -4.2 24.5
22:00 1022 30.18 851 25.13 3.7 38.7 57 -4.1 24.7
22:05 1022 30.18 851 25.13 3.6 38.5 59 -3.6 25.5
22:10 1022 30.18 851 25.13 2.9 37.2 64 -3.1 26.3
22:15 1022 30.18 851 25.13 2.5 36.5 63 -3.9 25
22:20 1022 30.18 851 25.13 2.7 36.8 61 -4 24.7
22:25 1022 30.18 851 25.13 2.7 36.9 62 -3.9 25
22:30 1022 30.18 851 25.13 2.8 37 61 -4 24.9
22:35 1022 30.18 851 25.13 2.8 37 61 -3.9 24.9
22:40 1022 30.18 851 25.13 2.8 37 61 -4 24.9
22:45 1022 30.18 851 25.13 2.9 37.2 59 -4.3 24.2
22:50 1022 30.18 851 25.13 3.3 37.9 57 -4.5 23.9
22:55 1022 30.18 851 25.13 3.5 38.4 56 -4.4 24
23:00 1022 30.18 852 25.16 3.6 38.5 56 -4.4 24
23:05 1022 30.18 852 25.16 3.5 38.3 56 -4.5 23.9
23:10 1023 30.21 852 25.16 3.5 38.2 56 -4.5 23.9
23:15 1023 30.21 852 25.16 3.4 38.1 56 -4.5 23.9
23:20 1023 30.21 852 25.16 3.2 37.8 57 -4.4 24.1
23:25 1023 30.21 852 25.16 3 37.4 57 -4.6 23.7
23:30 1023 30.21 852 25.16 3 37.4 57 -4.7 23.5
23:35 1023 30.21 852 25.16 2.9 37.3 57 -4.8 23.4
23:40 1023 30.21 852 25.16 2.9 37.2 58 -4.6 23.8
23:45 1023 30.21 852 25.16 2.8 37 59 -4.4 24.1
23:50 1023 30.21 852 25.16 2.7 36.9 59 -4.4 24.1
23:55 1023 30.21 852 25.16 2.7 36.9 58 -4.7 23.6
24:00 1023 30.21 852 25.16 2.8 37 58 -4.7 23.6